sensor_id;sensor_type;location;lat;lon;timestamp;P1;durP1;ratioP1;P2;durP2;ratioP2
27402;SDS011;14862;49.494;8.530;2024-02-14T00:00:18;7.57;;;4.63;;
27402;SDS011;14862;49.494;8.530;2024-02-14T00:02:43;9.82;;;4.97;;
27402;SDS011;14862;49.494;8.530;2024-02-14T00:05:09;7.45;;;4.35;;
27402;SDS011;14862;49.494;8.530;2024-02-14T00:07:36;10.40;;;4.60;;
27402;SDS011;14862;49.494;8.530;2024-02-14T00:10:01;9.02;;;4.38;;
27402;SDS011;14862;49.494;8.530;2024-02-14T00:12:26;7.32;;;4.20;;
27402;SDS011;14862;49.494;8.530;2024-02-14T00:14:52;8.30;;;4.45;;
27402;SDS011;14862;49.494;8.530;2024-02-14T00:17:17;5.93;;;4.37;;
27402;SDS011;14862;49.494;8.530;2024-02-14T00:19:42;9.20;;;3.87;;
27402;SDS011;14862;49.494;8.530;2024-02-14T00:22:08;9.95;;;4.53;;
27402;SDS011;14862;49.494;8.530;2024-02-14T00:24:33;6.80;;;4.13;;
27402;SDS011;14862;49.494;8.530;2024-02-14T00:27:00;7.20;;;4.18;;
27402;SDS011;14862;49.494;8.530;2024-02-14T00:29:28;9.02;;;3.30;;
27402;SDS011;14862;49.494;8.530;2024-02-14T00:31:53;7.67;;;3.80;;
27402;SDS011;14862;49.494;8.530;2024-02-14T00:34:18;8.37;;;4.30;;
27402;SDS011;14862;49.494;8.530;2024-02-14T00:36:43;9.13;;;4.45;;
27402;SDS011;14862;49.494;8.530;2024-02-14T00:39:09;7.95;;;4.03;;
27402;SDS011;14862;49.494;8.530;2024-02-14T00:41:34;7.00;;;4.15;;
27402;SDS011;14862;49.494;8.530;2024-02-14T00:44:00;6.45;;;4.28;;
27402;SDS011;14862;49.494;8.530;2024-02-14T00:46:25;10.82;;;4.45;;
27402;SDS011;14862;49.494;8.530;2024-02-14T00:48:50;10.60;;;5.80;;
27402;SDS011;14862;49.494;8.530;2024-02-14T00:51:16;12.27;;;5.78;;
27402;SDS011;14862;49.494;8.530;2024-02-14T00:53:41;9.60;;;5.40;;
27402;SDS011;14862;49.494;8.530;2024-02-14T00:56:06;8.63;;;4.28;;
27402;SDS011;14862;49.494;8.530;2024-02-14T00:58:32;7.53;;;4.38;;
27402;SDS011;14862;49.494;8.530;2024-02-14T01:00:57;7.27;;;4.43;;
27402;SDS011;14862;49.494;8.530;2024-02-14T01:03:22;6.28;;;4.53;;
27402;SDS011;14862;49.494;8.530;2024-02-14T01:05:48;8.80;;;4.88;;
27402;SDS011;14862;49.494;8.530;2024-02-14T01:08:13;7.68;;;4.80;;
27402;SDS011;14862;49.494;8.530;2024-02-14T01:10:39;9.18;;;5.45;;
27402;SDS011;14862;49.494;8.530;2024-02-14T01:13:04;10.75;;;4.28;;
27402;SDS011;14862;49.494;8.530;2024-02-14T01:15:31;8.45;;;4.50;;
27402;SDS011;14862;49.494;8.530;2024-02-14T01:17:56;6.30;;;3.40;;
27402;SDS011;14862;49.494;8.530;2024-02-14T01:20:21;9.25;;;4.53;;
27402;SDS011;14862;49.494;8.530;2024-02-14T01:22:47;6.65;;;4.00;;
27402;SDS011;14862;49.494;8.530;2024-02-14T01:25:13;9.10;;;4.00;;
27402;SDS011;14862;49.494;8.530;2024-02-14T01:27:38;5.88;;;3.50;;
27402;SDS011;14862;49.494;8.530;2024-02-14T01:30:03;5.72;;;4.00;;
27402;SDS011;14862;49.494;8.530;2024-02-14T01:32:30;9.23;;;3.80;;
27402;SDS011;14862;49.494;8.530;2024-02-14T01:34:55;6.05;;;3.65;;
27402;SDS011;14862;49.494;8.530;2024-02-14T01:37:21;6.25;;;3.83;;
27402;SDS011;14862;49.494;8.530;2024-02-14T01:39:46;9.02;;;4.13;;
27402;SDS011;14862;49.494;8.530;2024-02-14T01:42:11;10.30;;;4.37;;
27402;SDS011;14862;49.494;8.530;2024-02-14T01:44:37;7.23;;;4.30;;
27402;SDS011;14862;49.494;8.530;2024-02-14T01:47:02;6.80;;;3.95;;
27402;SDS011;14862;49.494;8.530;2024-02-14T01:49:27;8.85;;;4.57;;
27402;SDS011;14862;49.494;8.530;2024-02-14T01:51:53;7.93;;;3.83;;
27402;SDS011;14862;49.494;8.530;2024-02-14T01:54:18;8.73;;;3.90;;
27402;SDS011;14862;49.494;8.530;2024-02-14T01:56:43;10.40;;;4.45;;
27402;SDS011;14862;49.494;8.530;2024-02-14T01:59:09;8.50;;;4.32;;
27402;SDS011;14862;49.494;8.530;2024-02-14T02:01:35;6.10;;;4.35;;
27402;SDS011;14862;49.494;8.530;2024-02-14T02:04:00;8.40;;;4.35;;
27402;SDS011;14862;49.494;8.530;2024-02-14T02:06:26;6.25;;;4.10;;
27402;SDS011;14862;49.494;8.530;2024-02-14T02:08:51;8.07;;;4.70;;
27402;SDS011;14862;49.494;8.530;2024-02-14T02:11:17;7.07;;;4.30;;
27402;SDS011;14862;49.494;8.530;2024-02-14T02:13:42;8.32;;;4.47;;
27402;SDS011;14862;49.494;8.530;2024-02-14T02:16:07;7.65;;;4.35;;
27402;SDS011;14862;49.494;8.530;2024-02-14T02:18:33;9.10;;;4.85;;
27402;SDS011;14862;49.494;8.530;2024-02-14T02:20:58;7.97;;;4.53;;
27402;SDS011;14862;49.494;8.530;2024-02-14T02:23:23;6.87;;;4.23;;
27402;SDS011;14862;49.494;8.530;2024-02-14T02:25:48;7.43;;;4.97;;
27402;SDS011;14862;49.494;8.530;2024-02-14T02:28:15;10.93;;;5.47;;
27402;SDS011;14862;49.494;8.530;2024-02-14T02:30:40;8.18;;;5.05;;
27402;SDS011;14862;49.494;8.530;2024-02-14T02:33:05;10.80;;;5.50;;
27402;SDS011;14862;49.494;8.530;2024-02-14T02:35:32;11.57;;;6.00;;
27402;SDS011;14862;49.494;8.530;2024-02-14T02:37:57;10.55;;;4.90;;
27402;SDS011;14862;49.494;8.530;2024-02-14T02:40:23;9.40;;;5.72;;
27402;SDS011;14862;49.494;8.530;2024-02-14T02:42:48;9.95;;;5.28;;
27402;SDS011;14862;49.494;8.530;2024-02-14T02:45:15;11.52;;;5.35;;
27402;SDS011;14862;49.494;8.530;2024-02-14T02:47:40;8.88;;;4.82;;
27402;SDS011;14862;49.494;8.530;2024-02-14T02:50:05;9.77;;;5.05;;
27402;SDS011;14862;49.494;8.530;2024-02-14T02:52:31;11.82;;;5.15;;
27402;SDS011;14862;49.494;8.530;2024-02-14T02:54:56;8.38;;;4.68;;
27402;SDS011;14862;49.494;8.530;2024-02-14T02:57:21;5.78;;;4.07;;
27402;SDS011;14862;49.494;8.530;2024-02-14T02:59:46;7.20;;;4.40;;
27402;SDS011;14862;49.494;8.530;2024-02-14T03:02:13;10.85;;;5.15;;
27402;SDS011;14862;49.494;8.530;2024-02-14T03:04:39;8.30;;;4.68;;
27402;SDS011;14862;49.494;8.530;2024-02-14T03:07:04;8.40;;;4.55;;
27402;SDS011;14862;49.494;8.530;2024-02-14T03:09:32;7.07;;;4.75;;
27402;SDS011;14862;49.494;8.530;2024-02-14T03:11:57;8.15;;;5.00;;
27402;SDS011;14862;49.494;8.530;2024-02-14T03:14:23;9.50;;;5.43;;
27402;SDS011;14862;49.494;8.530;2024-02-14T03:16:48;8.23;;;4.53;;
27402;SDS011;14862;49.494;8.530;2024-02-14T03:19:13;11.48;;;4.93;;
27402;SDS011;14862;49.494;8.530;2024-02-14T03:21:38;9.82;;;5.40;;
27402;SDS011;14862;49.494;8.530;2024-02-14T03:24:04;11.73;;;5.67;;
27402;SDS011;14862;49.494;8.530;2024-02-14T03:26:30;9.68;;;5.10;;
27402;SDS011;14862;49.494;8.530;2024-02-14T03:28:58;10.52;;;5.68;;
27402;SDS011;14862;49.494;8.530;2024-02-14T03:31:23;8.20;;;5.43;;
27402;SDS011;14862;49.494;8.530;2024-02-14T03:33:50;10.57;;;5.43;;
27402;SDS011;14862;49.494;8.530;2024-02-14T03:36:15;10.00;;;5.37;;
27402;SDS011;14862;49.494;8.530;2024-02-14T03:38:40;10.60;;;4.93;;
27402;SDS011;14862;49.494;8.530;2024-02-14T03:41:06;9.13;;;5.25;;
27402;SDS011;14862;49.494;8.530;2024-02-14T03:43:32;8.35;;;5.07;;
27402;SDS011;14862;49.494;8.530;2024-02-14T03:45:57;7.97;;;5.23;;
27402;SDS011;14862;49.494;8.530;2024-02-14T03:48:22;7.40;;;4.70;;
27402;SDS011;14862;49.494;8.530;2024-02-14T03:50:47;11.73;;;5.32;;
27402;SDS011;14862;49.494;8.530;2024-02-14T03:53:13;8.82;;;4.50;;
27402;SDS011;14862;49.494;8.530;2024-02-14T03:55:40;8.25;;;5.00;;
27402;SDS011;14862;49.494;8.530;2024-02-14T03:58:05;10.80;;;5.82;;
27402;SDS011;14862;49.494;8.530;2024-02-14T04:00:31;7.72;;;4.50;;
27402;SDS011;14862;49.494;8.530;2024-02-14T04:02:56;6.88;;;4.78;;
27402;SDS011;14862;49.494;8.530;2024-02-14T04:05:25;10.52;;;5.15;;
27402;SDS011;14862;49.494;8.530;2024-02-14T04:07:51;8.93;;;4.55;;
27402;SDS011;14862;49.494;8.530;2024-02-14T04:10:18;12.05;;;5.78;;
27402;SDS011;14862;49.494;8.530;2024-02-14T04:12:43;11.37;;;5.87;;
27402;SDS011;14862;49.494;8.530;2024-02-14T04:15:08;10.32;;;5.07;;
27402;SDS011;14862;49.494;8.530;2024-02-14T04:17:34;8.88;;;4.70;;
27402;SDS011;14862;49.494;8.530;2024-02-14T04:19:59;10.57;;;4.78;;
27402;SDS011;14862;49.494;8.530;2024-02-14T04:22:24;9.93;;;4.63;;
27402;SDS011;14862;49.494;8.530;2024-02-14T04:24:49;10.90;;;5.13;;
27402;SDS011;14862;49.494;8.530;2024-02-14T04:27:15;8.50;;;4.20;;
27402;SDS011;14862;49.494;8.530;2024-02-14T04:29:40;8.18;;;4.50;;
27402;SDS011;14862;49.494;8.530;2024-02-14T04:32:05;11.05;;;4.60;;
27402;SDS011;14862;49.494;8.530;2024-02-14T04:34:31;11.63;;;5.63;;
27402;SDS011;14862;49.494;8.530;2024-02-14T04:36:56;8.75;;;4.60;;
27402;SDS011;14862;49.494;8.530;2024-02-14T04:39:21;7.57;;;4.43;;
27402;SDS011;14862;49.494;8.530;2024-02-14T04:41:47;9.90;;;4.82;;
27402;SDS011;14862;49.494;8.530;2024-02-14T04:44:12;8.07;;;4.90;;
27402;SDS011;14862;49.494;8.530;2024-02-14T04:46:37;11.68;;;5.07;;
27402;SDS011;14862;49.494;8.530;2024-02-14T04:49:08;8.73;;;4.78;;
27402;SDS011;14862;49.494;8.530;2024-02-14T04:51:34;10.20;;;4.80;;
27402;SDS011;14862;49.494;8.530;2024-02-14T04:53:59;10.88;;;5.15;;
27402;SDS011;14862;49.494;8.530;2024-02-14T04:56:25;7.10;;;4.87;;
27402;SDS011;14862;49.494;8.530;2024-02-14T04:58:52;12.65;;;4.45;;
27402;SDS011;14862;49.494;8.530;2024-02-14T05:01:17;6.50;;;4.10;;
27402;SDS011;14862;49.494;8.530;2024-02-14T05:03:43;9.27;;;4.68;;
27402;SDS011;14862;49.494;8.530;2024-02-14T05:06:08;10.57;;;4.60;;
27402;SDS011;14862;49.494;8.530;2024-02-14T05:08:33;8.68;;;4.60;;
27402;SDS011;14862;49.494;8.530;2024-02-14T05:10:59;9.18;;;4.72;;
27402;SDS011;14862;49.494;8.530;2024-02-14T05:13:24;12.15;;;5.18;;
27402;SDS011;14862;49.494;8.530;2024-02-14T05:15:49;11.60;;;5.07;;
27402;SDS011;14862;49.494;8.530;2024-02-14T05:18:16;8.50;;;4.32;;
27402;SDS011;14862;49.494;8.530;2024-02-14T05:20:41;12.17;;;4.93;;
27402;SDS011;14862;49.494;8.530;2024-02-14T05:23:07;12.00;;;5.43;;
27402;SDS011;14862;49.494;8.530;2024-02-14T05:25:32;7.13;;;4.27;;
27402;SDS011;14862;49.494;8.530;2024-02-14T05:27:58;6.93;;;4.55;;
27402;SDS011;14862;49.494;8.530;2024-02-14T05:30:23;9.65;;;4.50;;
27402;SDS011;14862;49.494;8.530;2024-02-14T05:32:49;9.40;;;5.15;;
27402;SDS011;14862;49.494;8.530;2024-02-14T05:35:17;8.07;;;5.35;;
27402;SDS011;14862;49.494;8.530;2024-02-14T05:37:42;9.50;;;4.80;;
27402;SDS011;14862;49.494;8.530;2024-02-14T05:40:07;11.90;;;4.70;;
27402;SDS011;14862;49.494;8.530;2024-02-14T05:42:33;5.90;;;4.05;;
27402;SDS011;14862;49.494;8.530;2024-02-14T05:44:59;6.65;;;3.95;;
27402;SDS011;14862;49.494;8.530;2024-02-14T05:47:24;7.85;;;4.88;;
27402;SDS011;14862;49.494;8.530;2024-02-14T05:49:50;9.38;;;4.30;;
27402;SDS011;14862;49.494;8.530;2024-02-14T05:52:15;11.88;;;4.70;;
27402;SDS011;14862;49.494;8.530;2024-02-14T05:54:41;7.07;;;3.88;;
27402;SDS011;14862;49.494;8.530;2024-02-14T05:57:06;10.02;;;4.70;;
27402;SDS011;14862;49.494;8.530;2024-02-14T05:59:32;9.35;;;4.63;;
27402;SDS011;14862;49.494;8.530;2024-02-14T06:01:57;10.07;;;4.75;;
27402;SDS011;14862;49.494;8.530;2024-02-14T06:04:22;7.13;;;4.95;;
27402;SDS011;14862;49.494;8.530;2024-02-14T06:06:48;8.48;;;4.68;;
27402;SDS011;14862;49.494;8.530;2024-02-14T06:09:13;11.52;;;5.30;;
27402;SDS011;14862;49.494;8.530;2024-02-14T06:11:39;8.70;;;4.05;;
27402;SDS011;14862;49.494;8.530;2024-02-14T06:14:07;9.20;;;4.38;;
27402;SDS011;14862;49.494;8.530;2024-02-14T06:16:33;10.68;;;5.22;;
27402;SDS011;14862;49.494;8.530;2024-02-14T06:18:58;7.13;;;4.03;;
27402;SDS011;14862;49.494;8.530;2024-02-14T06:21:23;6.13;;;4.32;;
27402;SDS011;14862;49.494;8.530;2024-02-14T06:23:49;6.95;;;4.45;;
27402;SDS011;14862;49.494;8.530;2024-02-14T06:26:14;12.60;;;4.90;;
27402;SDS011;14862;49.494;8.530;2024-02-14T06:28:39;11.03;;;4.80;;
27402;SDS011;14862;49.494;8.530;2024-02-14T06:31:04;8.95;;;4.70;;
27402;SDS011;14862;49.494;8.530;2024-02-14T06:33:30;9.13;;;5.15;;
27402;SDS011;14862;49.494;8.530;2024-02-14T06:35:55;7.90;;;4.30;;
27402;SDS011;14862;49.494;8.530;2024-02-14T06:38:20;8.32;;;4.60;;
27402;SDS011;14862;49.494;8.530;2024-02-14T06:40:45;8.40;;;4.10;;
27402;SDS011;14862;49.494;8.530;2024-02-14T06:43:11;7.18;;;4.00;;
27402;SDS011;14862;49.494;8.530;2024-02-14T06:45:37;8.27;;;4.22;;
27402;SDS011;14862;49.494;8.530;2024-02-14T06:48:02;7.97;;;4.35;;
27402;SDS011;14862;49.494;8.530;2024-02-14T06:50:27;8.98;;;4.57;;
27402;SDS011;14862;49.494;8.530;2024-02-14T06:52:54;10.73;;;4.35;;
27402;SDS011;14862;49.494;8.530;2024-02-14T06:55:19;8.60;;;4.00;;
27402;SDS011;14862;49.494;8.530;2024-02-14T06:57:44;7.40;;;4.20;;
27402;SDS011;14862;49.494;8.530;2024-02-14T07:00:10;11.50;;;4.35;;
27402;SDS011;14862;49.494;8.530;2024-02-14T07:02:35;7.85;;;4.18;;
27402;SDS011;14862;49.494;8.530;2024-02-14T07:05:01;10.18;;;4.05;;
27402;SDS011;14862;49.494;8.530;2024-02-14T07:07:27;7.78;;;4.00;;
27402;SDS011;14862;49.494;8.530;2024-02-14T07:09:52;7.80;;;3.75;;
27402;SDS011;14862;49.494;8.530;2024-02-14T07:12:17;7.47;;;4.40;;
27402;SDS011;14862;49.494;8.530;2024-02-14T07:14:44;10.45;;;3.95;;
27402;SDS011;14862;49.494;8.530;2024-02-14T07:17:09;8.52;;;3.95;;
27402;SDS011;14862;49.494;8.530;2024-02-14T07:19:34;8.00;;;4.53;;
27402;SDS011;14862;49.494;8.530;2024-02-14T07:21:59;6.03;;;3.60;;
27402;SDS011;14862;49.494;8.530;2024-02-14T07:24:25;10.38;;;4.25;;
27402;SDS011;14862;49.494;8.530;2024-02-14T07:26:50;8.37;;;3.93;;
27402;SDS011;14862;49.494;8.530;2024-02-14T07:29:15;8.55;;;4.10;;
27402;SDS011;14862;49.494;8.530;2024-02-14T07:31:40;9.17;;;4.03;;
27402;SDS011;14862;49.494;8.530;2024-02-14T07:34:06;5.40;;;3.58;;
27402;SDS011;14862;49.494;8.530;2024-02-14T07:36:31;6.10;;;3.67;;
27402;SDS011;14862;49.494;8.530;2024-02-14T07:38:57;9.10;;;3.70;;
27402;SDS011;14862;49.494;8.530;2024-02-14T07:41:22;8.68;;;4.25;;
27402;SDS011;14862;49.494;8.530;2024-02-14T07:43:47;6.40;;;3.45;;
27402;SDS011;14862;49.494;8.530;2024-02-14T07:46:19;10.27;;;3.73;;
27402;SDS011;14862;49.494;8.530;2024-02-14T07:48:44;8.85;;;3.38;;
27402;SDS011;14862;49.494;8.530;2024-02-14T07:51:09;8.35;;;4.53;;
27402;SDS011;14862;49.494;8.530;2024-02-14T07:53:35;6.22;;;3.40;;
27402;SDS011;14862;49.494;8.530;2024-02-14T07:56:00;6.03;;;3.53;;
27402;SDS011;14862;49.494;8.530;2024-02-14T07:58:25;8.52;;;3.20;;
27402;SDS011;14862;49.494;8.530;2024-02-14T08:00:51;6.80;;;3.43;;
27402;SDS011;14862;49.494;8.530;2024-02-14T08:03:16;9.43;;;4.05;;
27402;SDS011;14862;49.494;8.530;2024-02-14T08:05:41;10.35;;;3.72;;
27402;SDS011;14862;49.494;8.530;2024-02-14T08:08:07;6.60;;;2.72;;
27402;SDS011;14862;49.494;8.530;2024-02-14T08:10:32;7.07;;;3.60;;
27402;SDS011;14862;49.494;8.530;2024-02-14T08:12:58;9.73;;;2.78;;
27402;SDS011;14862;49.494;8.530;2024-02-14T08:15:23;7.72;;;3.22;;
27402;SDS011;14862;49.494;8.530;2024-02-14T08:17:48;9.53;;;3.13;;
27402;SDS011;14862;49.494;8.530;2024-02-14T08:20:14;6.57;;;2.97;;
27402;SDS011;14862;49.494;8.530;2024-02-14T08:22:39;5.13;;;2.95;;
27402;SDS011;14862;49.494;8.530;2024-02-14T08:25:04;13.67;;;3.23;;
27402;SDS011;14862;49.494;8.530;2024-02-14T08:27:30;4.40;;;2.58;;
27402;SDS011;14862;49.494;8.530;2024-02-14T08:29:56;6.43;;;2.47;;
27402;SDS011;14862;49.494;8.530;2024-02-14T08:32:21;4.30;;;2.60;;
27402;SDS011;14862;49.494;8.530;2024-02-14T08:34:47;6.72;;;2.83;;
27402;SDS011;14862;49.494;8.530;2024-02-14T08:37:12;7.78;;;2.90;;
27402;SDS011;14862;49.494;8.530;2024-02-14T08:39:38;5.63;;;2.97;;
27402;SDS011;14862;49.494;8.530;2024-02-14T08:42:03;4.05;;;2.50;;
27402;SDS011;14862;49.494;8.530;2024-02-14T08:44:32;3.80;;;2.47;;
27402;SDS011;14862;49.494;8.530;2024-02-14T08:46:58;6.70;;;2.85;;
27402;SDS011;14862;49.494;8.530;2024-02-14T08:49:23;5.07;;;3.00;;
27402;SDS011;14862;49.494;8.530;2024-02-14T08:51:48;7.83;;;3.03;;
27402;SDS011;14862;49.494;8.530;2024-02-14T08:54:14;6.28;;;2.72;;
27402;SDS011;14862;49.494;8.530;2024-02-14T08:56:41;8.98;;;3.75;;
27402;SDS011;14862;49.494;8.530;2024-02-14T08:59:06;9.17;;;2.80;;
27402;SDS011;14862;49.494;8.530;2024-02-14T09:01:31;6.80;;;2.63;;
27402;SDS011;14862;49.494;8.530;2024-02-14T09:03:57;9.43;;;3.38;;
27402;SDS011;14862;49.494;8.530;2024-02-14T09:06:24;3.83;;;2.58;;
27402;SDS011;14862;49.494;8.530;2024-02-14T09:08:49;8.70;;;3.20;;
27402;SDS011;14862;49.494;8.530;2024-02-14T09:11:18;4.93;;;2.90;;
27402;SDS011;14862;49.494;8.530;2024-02-14T09:13:43;4.75;;;2.92;;
27402;SDS011;14862;49.494;8.530;2024-02-14T09:16:08;7.03;;;2.83;;
27402;SDS011;14862;49.494;8.530;2024-02-14T09:18:34;5.22;;;2.83;;
27402;SDS011;14862;49.494;8.530;2024-02-14T09:21:00;5.80;;;3.22;;
27402;SDS011;14862;49.494;8.530;2024-02-14T09:23:26;4.28;;;2.50;;
27402;SDS011;14862;49.494;8.530;2024-02-14T09:25:51;8.13;;;3.42;;
27402;SDS011;14862;49.494;8.530;2024-02-14T09:28:16;6.75;;;3.20;;
27402;SDS011;14862;49.494;8.530;2024-02-14T09:30:42;7.70;;;3.08;;
27402;SDS011;14862;49.494;8.530;2024-02-14T09:33:07;8.30;;;2.78;;
27402;SDS011;14862;49.494;8.530;2024-02-14T09:35:32;6.93;;;3.50;;
27402;SDS011;14862;49.494;8.530;2024-02-14T09:37:57;7.63;;;3.43;;
27402;SDS011;14862;49.494;8.530;2024-02-14T09:40:24;7.10;;;3.38;;
27402;SDS011;14862;49.494;8.530;2024-02-14T09:42:53;8.60;;;3.45;;
27402;SDS011;14862;49.494;8.530;2024-02-14T09:45:18;6.57;;;3.25;;
27402;SDS011;14862;49.494;8.530;2024-02-14T09:47:43;5.45;;;3.20;;
27402;SDS011;14862;49.494;8.530;2024-02-14T09:50:09;5.65;;;3.03;;
27402;SDS011;14862;49.494;8.530;2024-02-14T09:52:37;7.65;;;3.45;;
27402;SDS011;14862;49.494;8.530;2024-02-14T09:55:03;5.70;;;2.72;;
27402;SDS011;14862;49.494;8.530;2024-02-14T09:57:30;7.25;;;3.38;;
27402;SDS011;14862;49.494;8.530;2024-02-14T09:59:56;5.55;;;3.13;;
27402;SDS011;14862;49.494;8.530;2024-02-14T10:02:21;4.90;;;2.95;;
27402;SDS011;14862;49.494;8.530;2024-02-14T10:04:46;4.50;;;3.08;;
27402;SDS011;14862;49.494;8.530;2024-02-14T10:07:12;7.30;;;3.38;;
27402;SDS011;14862;49.494;8.530;2024-02-14T10:09:40;8.65;;;3.65;;
27402;SDS011;14862;49.494;8.530;2024-02-14T10:12:07;6.72;;;2.88;;
27402;SDS011;14862;49.494;8.530;2024-02-14T10:14:34;7.18;;;3.33;;
27402;SDS011;14862;49.494;8.530;2024-02-14T10:16:59;5.63;;;2.85;;
27402;SDS011;14862;49.494;8.530;2024-02-14T10:19:24;4.43;;;2.80;;
27402;SDS011;14862;49.494;8.530;2024-02-14T10:21:56;7.10;;;3.13;;
27402;SDS011;14862;49.494;8.530;2024-02-14T10:24:23;7.70;;;2.90;;
27402;SDS011;14862;49.494;8.530;2024-02-14T10:26:49;5.47;;;2.85;;
27402;SDS011;14862;49.494;8.530;2024-02-14T10:29:14;6.55;;;2.70;;
27402;SDS011;14862;49.494;8.530;2024-02-14T10:31:40;4.78;;;3.17;;
27402;SDS011;14862;49.494;8.530;2024-02-14T10:34:05;6.88;;;2.78;;
27402;SDS011;14862;49.494;8.530;2024-02-14T10:36:31;5.45;;;2.85;;
27402;SDS011;14862;49.494;8.530;2024-02-14T10:38:59;7.18;;;3.03;;
27402;SDS011;14862;49.494;8.530;2024-02-14T10:41:24;5.80;;;3.35;;
27402;SDS011;14862;49.494;8.530;2024-02-14T10:43:49;6.97;;;2.90;;
27402;SDS011;14862;49.494;8.530;2024-02-14T10:46:24;6.07;;;2.40;;
27402;SDS011;14862;49.494;8.530;2024-02-14T10:48:52;7.32;;;2.40;;
27402;SDS011;14862;49.494;8.530;2024-02-14T10:51:18;5.55;;;2.50;;
27402;SDS011;14862;49.494;8.530;2024-02-14T10:53:46;8.15;;;2.35;;
27402;SDS011;14862;49.494;8.530;2024-02-14T10:56:17;4.55;;;2.28;;
27402;SDS011;14862;49.494;8.530;2024-02-14T10:58:43;5.72;;;2.38;;
27402;SDS011;14862;49.494;8.530;2024-02-14T11:01:10;4.93;;;2.17;;
27402;SDS011;14862;49.494;8.530;2024-02-14T11:03:36;3.38;;;2.13;;
27402;SDS011;14862;49.494;8.530;2024-02-14T11:06:02;5.80;;;2.33;;
27402;SDS011;14862;49.494;8.530;2024-02-14T11:08:28;4.85;;;2.20;;
27402;SDS011;14862;49.494;8.530;2024-02-14T11:10:54;4.78;;;2.40;;
27402;SDS011;14862;49.494;8.530;2024-02-14T11:13:21;5.15;;;2.40;;
27402;SDS011;14862;49.494;8.530;2024-02-14T11:15:46;6.03;;;2.38;;
27402;SDS011;14862;49.494;8.530;2024-02-14T11:18:12;4.95;;;2.40;;
27402;SDS011;14862;49.494;8.530;2024-02-14T11:20:37;5.05;;;2.40;;
27402;SDS011;14862;49.494;8.530;2024-02-14T11:23:06;5.07;;;2.33;;
27402;SDS011;14862;49.494;8.530;2024-02-14T11:25:36;8.68;;;2.60;;
27402;SDS011;14862;49.494;8.530;2024-02-14T11:28:24;5.88;;;2.42;;
27402;SDS011;14862;49.494;8.530;2024-02-14T11:30:48;4.28;;;2.40;;
27402;SDS011;14862;49.494;8.530;2024-02-14T11:35:42;2.47;;;1.88;;
27402;SDS011;14862;49.494;8.530;2024-02-14T11:38:08;4.80;;;2.50;;
27402;SDS011;14862;49.494;8.530;2024-02-14T11:40:34;5.18;;;2.28;;
27402;SDS011;14862;49.494;8.530;2024-02-14T11:42:59;3.38;;;2.22;;
27402;SDS011;14862;49.494;8.530;2024-02-14T11:45:24;5.28;;;2.10;;
27402;SDS011;14862;49.494;8.530;2024-02-14T11:47:49;6.75;;;2.55;;
27402;SDS011;14862;49.494;8.530;2024-02-14T11:50:16;4.88;;;2.45;;
27402;SDS011;14862;49.494;8.530;2024-02-14T11:52:42;5.80;;;2.40;;
27402;SDS011;14862;49.494;8.530;2024-02-14T11:55:08;5.68;;;2.42;;
27402;SDS011;14862;49.494;8.530;2024-02-14T11:57:33;6.68;;;2.50;;
27402;SDS011;14862;49.494;8.530;2024-02-14T12:00:00;5.30;;;2.72;;
27402;SDS011;14862;49.494;8.530;2024-02-14T12:02:25;6.22;;;2.20;;
27402;SDS011;14862;49.494;8.530;2024-02-14T12:04:50;6.67;;;2.47;;
27402;SDS011;14862;49.494;8.530;2024-02-14T12:07:18;5.40;;;2.25;;
27402;SDS011;14862;49.494;8.530;2024-02-14T12:09:44;4.85;;;2.90;;
27402;SDS011;14862;49.494;8.530;2024-02-14T12:12:09;4.27;;;2.30;;
27402;SDS011;14862;49.494;8.530;2024-02-14T12:14:34;5.75;;;2.40;;
27402;SDS011;14862;49.494;8.530;2024-02-14T12:16:59;5.40;;;2.50;;
27402;SDS011;14862;49.494;8.530;2024-02-14T12:19:27;3.85;;;2.17;;
27402;SDS011;14862;49.494;8.530;2024-02-14T12:21:53;4.13;;;2.67;;
27402;SDS011;14862;49.494;8.530;2024-02-14T12:24:20;3.92;;;2.22;;
27402;SDS011;14862;49.494;8.530;2024-02-14T12:26:45;4.40;;;2.20;;
27402;SDS011;14862;49.494;8.530;2024-02-14T12:29:11;3.67;;;2.40;;
27402;SDS011;14862;49.494;8.530;2024-02-14T12:31:38;3.35;;;2.53;;
27402;SDS011;14862;49.494;8.530;2024-02-14T12:34:03;3.73;;;2.40;;
27402;SDS011;14862;49.494;8.530;2024-02-14T12:36:30;2.33;;;1.70;;
27402;SDS011;14862;49.494;8.530;2024-02-14T12:38:55;2.63;;;1.98;;
27402;SDS011;14862;49.494;8.530;2024-02-14T12:41:20;3.13;;;1.90;;
27402;SDS011;14862;49.494;8.530;2024-02-14T12:43:47;3.00;;;1.70;;
27402;SDS011;14862;49.494;8.530;2024-02-14T12:46:13;3.88;;;1.55;;
27402;SDS011;14862;49.494;8.530;2024-02-14T12:48:38;5.78;;;2.00;;
27402;SDS011;14862;49.494;8.530;2024-02-14T12:51:03;2.00;;;1.43;;
27402;SDS011;14862;49.494;8.530;2024-02-14T12:53:29;2.60;;;1.48;;
27402;SDS011;14862;49.494;8.530;2024-02-14T12:55:54;3.90;;;2.17;;
27402;SDS011;14862;49.494;8.530;2024-02-14T12:58:19;3.73;;;2.10;;
27402;SDS011;14862;49.494;8.530;2024-02-14T13:00:44;3.03;;;1.97;;
27402;SDS011;14862;49.494;8.530;2024-02-14T13:03:10;2.95;;;1.88;;
27402;SDS011;14862;49.494;8.530;2024-02-14T13:05:36;5.38;;;1.95;;
27402;SDS011;14862;49.494;8.530;2024-02-14T13:08:01;4.13;;;1.80;;
27402;SDS011;14862;49.494;8.530;2024-02-14T13:10:26;6.07;;;1.88;;
27402;SDS011;14862;49.494;8.530;2024-02-14T13:12:51;7.22;;;1.77;;
27402;SDS011;14862;49.494;8.530;2024-02-14T13:15:17;4.40;;;2.10;;
27402;SDS011;14862;49.494;8.530;2024-02-14T13:17:42;2.83;;;1.73;;
27402;SDS011;14862;49.494;8.530;2024-02-14T13:20:07;5.13;;;1.90;;
27402;SDS011;14862;49.494;8.530;2024-02-14T13:22:33;2.03;;;1.80;;
27402;SDS011;14862;49.494;8.530;2024-02-14T13:24:58;3.10;;;1.90;;
27402;SDS011;14862;49.494;8.530;2024-02-14T13:27:25;3.58;;;2.28;;
27402;SDS011;14862;49.494;8.530;2024-02-14T13:29:50;6.32;;;2.53;;
27402;SDS011;14862;49.494;8.530;2024-02-14T13:32:16;3.88;;;2.05;;
27402;SDS011;14862;49.494;8.530;2024-02-14T13:34:41;4.53;;;2.33;;
27402;SDS011;14862;49.494;8.530;2024-02-14T13:37:08;3.60;;;2.35;;
27402;SDS011;14862;49.494;8.530;2024-02-14T13:39:34;2.97;;;1.98;;
27402;SDS011;14862;49.494;8.530;2024-02-14T13:41:59;3.47;;;1.93;;
27402;SDS011;14862;49.494;8.530;2024-02-14T13:44:26;4.60;;;2.15;;
27402;SDS011;14862;49.494;8.530;2024-02-14T13:46:51;3.40;;;1.73;;
27402;SDS011;14862;49.494;8.530;2024-02-14T13:49:17;2.03;;;1.25;;
27402;SDS011;14862;49.494;8.530;2024-02-14T13:51:47;1.45;;;1.10;;
27402;SDS011;14862;49.494;8.530;2024-02-14T13:54:12;2.35;;;1.20;;
27402;SDS011;14862;49.494;8.530;2024-02-14T13:56:37;2.50;;;1.30;;
27402;SDS011;14862;49.494;8.530;2024-02-14T13:59:02;2.55;;;1.50;;
27402;SDS011;14862;49.494;8.530;2024-02-14T14:01:28;1.40;;;1.10;;
27402;SDS011;14862;49.494;8.530;2024-02-14T14:03:53;2.07;;;1.07;;
27402;SDS011;14862;49.494;8.530;2024-02-14T14:06:20;1.98;;;1.10;;
27402;SDS011;14862;49.494;8.530;2024-02-14T14:08:46;2.70;;;1.42;;
27402;SDS011;14862;49.494;8.530;2024-02-14T14:11:11;2.03;;;1.17;;
27402;SDS011;14862;49.494;8.530;2024-02-14T14:13:37;1.85;;;1.20;;
27402;SDS011;14862;49.494;8.530;2024-02-14T14:16:02;1.27;;;0.93;;
27402;SDS011;14862;49.494;8.530;2024-02-14T14:18:30;3.05;;;1.10;;
27402;SDS011;14862;49.494;8.530;2024-02-14T14:20:55;1.45;;;1.08;;
27402;SDS011;14862;49.494;8.530;2024-02-14T14:23:20;2.37;;;1.57;;
27402;SDS011;14862;49.494;8.530;2024-02-14T14:25:45;1.58;;;1.27;;
27402;SDS011;14862;49.494;8.530;2024-02-14T14:28:10;2.05;;;1.05;;
27402;SDS011;14862;49.494;8.530;2024-02-14T14:30:36;1.02;;;0.90;;
27402;SDS011;14862;49.494;8.530;2024-02-14T14:33:02;1.67;;;1.10;;
27402;SDS011;14862;49.494;8.530;2024-02-14T14:35:27;3.13;;;1.20;;
27402;SDS011;14862;49.494;8.530;2024-02-14T14:37:53;2.97;;;1.10;;